Edgewater, OH

8:07 AM EDT on September 29, 2016 (GMT -0400)
Lakewood Heights | | Change Station

Elev 748 ft 41.47 °N, 81.79 °W | Updated 1 second ago

Mostly Cloudy
Mostly Cloudy
58.6 °F
Feels Like 58.6 °F
N
0.0
Wind Variable Wind from North
Gusts 2.0 mph

Today
High -- | Low -- °F
--% Chance of Precip.
Yesterday
High -- | Low -- °F
Precip. -- in
Pressure 30.09 in
Visibility 10.0 miles
Clouds Mostly Cloudy 1300 ft
Mostly Cloudy 6000 ft
Dew Point 57 °F
Humidity 93%
Rainfall 0.02 in
Snow Depth Not available.
7:22 AM 7:11 PM
Waning Crescent, 2% visible
METAR KCLE 291151Z 15003KT 10SM BKN013 BKN060 15/13 A3010 RMK AO2 RAB06E44 SLP190 P0003 60005 70031 T01500128 10150 20144 53023
Pressure 30.09 in
Visibility 10.0 miles
Clouds Mostly Cloudy 1300 ft
Mostly Cloudy 6000 ft
Dew Point 57 °F
Humidity 93%
Rainfall 0.02 in
Snow Depth Not available.
7:22 AM 7:11 PM
Waning Crescent, 2% visible
METAR KCLE 291151Z 15003KT 10SM BKN013 BKN060 15/13 A3010 RMK AO2 RAB06E44 SLP190 P0003 60005 70031 T01500128 10150 20144 53023

10-Day Weather Forecast

Almanac

Astronomy

Sep. 29, 2016 Rise Set
Actual Time
Civil Twilight
Nautical Twilight
Astronomical Twilight
Moon
Length of Visible Light
Length of Day
Tomorrow will be .
, % of the Moon is Illuminated

Today's Extremes

State Highs State Lows

Community

WunderPhotos

Upload Photos

1,942,466 photos uploaded!

WunderBlog® & News

Nearby

Air Quality

  Air Quality AQ Index Pollutant
Not available.

Snow Depth

Station Depth Elevation

Earthquake Activity

City Distance Mag. Time & Date
Minimum magnitude displayed is 2.5.

Coastal Water Temperatures

Place Temperature

Stations

Nearby Weather Stations

Station Location Temp. Windchill Dew Point Humidity Wind Precip. Elev Updated Type
                   

Watches & Warnings

There are currently no watches in effect.